createdAt,value
2023-02-19T00:01:59.654Z,101021.16
2023-02-19T00:04:27.386Z,101037.22
2023-02-19T00:06:55.367Z,101032.78
2023-02-19T00:09:23.291Z,101032.66
2023-02-19T00:11:52.437Z,101048.50
2023-02-19T00:14:22.106Z,101013.34
2023-02-19T00:16:52.454Z,101026.94
2023-02-19T00:19:21.819Z,101020.44
2023-02-19T00:21:51.764Z,101013.34
2023-02-19T00:24:20.097Z,101032.91
2023-02-19T00:26:48.305Z,101010.31
2023-02-19T00:29:19.065Z,101030.25
2023-02-19T00:31:47.662Z,101018.28
2023-02-19T00:34:15.702Z,101016.09
2023-02-19T00:36:48.245Z,101014.91
2023-02-19T00:39:18.534Z,101013.47
2023-02-19T00:41:49.745Z,101018.03
2023-02-19T00:44:19.551Z,101021.28
2023-02-19T00:46:49.269Z,101015.25
2023-02-19T00:49:22.848Z,101001.94
2023-02-19T00:51:51.706Z,100974.09
2023-02-19T00:54:23.565Z,100976.50
2023-02-19T00:56:52.113Z,101004.34
2023-02-19T00:59:21.811Z,100988.28
2023-02-19T01:01:50.611Z,101005.81
2023-02-19T01:04:18.840Z,100986.59
2023-02-19T01:06:49.849Z,100917.69
2023-02-19T01:09:19.392Z,101012.28
2023-02-19T01:11:47.369Z,101001.81
2023-02-19T01:14:15.162Z,101010.59
2023-02-19T01:16:46.917Z,100996.44
2023-02-19T01:19:14.695Z,100998.94
2023-02-19T01:21:42.787Z,101006.03
2023-02-19T01:24:13.988Z,100986.84
2023-02-19T01:26:42.253Z,100993.06
2023-02-19T01:29:11.033Z,100998.34
2023-02-19T01:31:42.199Z,100978.06
2023-02-19T01:34:13.125Z,100982.88
2023-02-19T01:36:41.202Z,100994.75
2023-02-19T01:39:09.161Z,100988.97
2023-02-19T01:41:41.993Z,101011.44
2023-02-19T01:44:48.684Z,100989.69
2023-02-19T01:47:20.117Z,100986.81
2023-02-19T01:49:55.434Z,100990.31
2023-02-19T01:52:27.235Z,100973.63
2023-02-19T01:54:57.588Z,100985.75
2023-02-19T01:57:28.141Z,100974.13
2023-02-19T01:59:59.528Z,100976.63
2023-02-19T02:02:28.458Z,100988.03
2023-02-19T02:05:00.923Z,100971.72
2023-02-19T02:07:46.190Z,100989.47
2023-02-19T02:10:23.021Z,100980.38
2023-02-19T02:12:52.645Z,100981.31
2023-02-19T02:15:22.264Z,100976.38
2023-02-19T02:17:56.569Z,100989.47
2023-02-19T02:20:36.152Z,101002.56
2023-02-19T02:23:10.913Z,100985.16
2023-02-19T02:26:18.430Z,100988.16
2023-02-19T02:29:12.429Z,101007.22
2023-02-19T02:31:45.987Z,100993.06
2023-02-19T02:34:17.529Z,100980.59
2023-02-19T02:36:51.246Z,100978.06
2023-02-19T02:39:22.924Z,100975.78
2023-02-19T02:42:12.911Z,100970.50
2023-02-19T02:44:42.143Z,100973.13
2023-02-19T02:47:32.101Z,100979.13
2023-02-19T02:50:06.128Z,100969.53
2023-02-19T02:52:55.327Z,100979.97
2023-02-19T02:55:23.728Z,100975.78
2023-02-19T02:57:51.718Z,100973.03
2023-02-19T03:00:19.909Z,100989.69
2023-02-19T03:02:48.596Z,100974.59
2023-02-19T03:05:45.427Z,100978.91
2023-02-19T03:08:17.869Z,100988.97
2023-02-19T03:10:52.420Z,100990.44
2023-02-19T03:13:44.772Z,100995.59
2023-02-19T03:16:36.351Z,100996.91
2023-02-19T03:19:21.599Z,100986.34
2023-02-19T03:21:54.947Z,100994.25
2023-02-19T03:24:43.868Z,100988.50
2023-02-19T03:27:15.136Z,100998.84
2023-02-19T03:29:50.355Z,101003.75
2023-02-19T03:32:22.269Z,101032.22
2023-02-19T03:34:56.192Z,101004.69
2023-02-19T03:37:30.739Z,101004.34
2023-02-19T03:40:00.174Z,101007.72
2023-02-19T03:42:39.213Z,101012.50
2023-02-19T03:45:28.368Z,100995.09
2023-02-19T03:48:04.366Z,101021.03
2023-02-19T03:50:41.028Z,101043.00
2023-02-19T03:53:13.835Z,101027.03
2023-02-19T03:56:00.643Z,101024.28
2023-02-19T03:58:33.569Z,101033.41
2023-02-19T04:01:08.139Z,101018.25
2023-02-19T04:03:41.542Z,101037.94
2023-02-19T04:06:14.798Z,101029.91
2023-02-19T04:08:47.309Z,101057.63
2023-02-19T04:11:17.101Z,101047.66
2023-02-19T04:13:49.618Z,101042.72
2023-02-19T04:16:22.527Z,101026.66
2023-02-19T04:18:54.542Z,101034.47
2023-02-19T04:21:24.917Z,101052.84
2023-02-19T04:23:53.031Z,101052.00
2023-02-19T04:26:23.803Z,101063.41
2023-02-19T04:28:51.639Z,101068.19
2023-02-19T04:31:19.618Z,101068.19
2023-02-19T04:33:47.531Z,101063.84
2023-02-19T04:36:15.254Z,101089.28
2023-02-19T04:38:44.380Z,101066.50
2023-02-19T04:41:12.433Z,101077.88
2023-02-19T04:43:40.355Z,101079.22
2023-02-19T04:46:08.464Z,101075.63
2023-02-19T04:48:36.275Z,101083.16
2023-02-19T04:51:06.731Z,101090.69
2023-02-19T04:53:34.613Z,101097.50
2023-02-19T04:56:08.827Z,101087.34
2023-02-19T04:58:36.680Z,101091.53
2023-02-19T05:01:04.982Z,101096.47
2023-02-19T05:03:35.092Z,101096.69
2023-02-19T05:06:04.661Z,101095.84
2023-02-19T05:08:32.555Z,101093.19
2023-02-19T05:11:00.918Z,101096.56
2023-02-19T05:13:30.109Z,101105.34
2023-02-19T05:15:59.318Z,101114.44
2023-02-19T05:18:27.385Z,101081.00
2023-02-19T05:20:55.368Z,101117.53
2023-02-19T05:23:23.158Z,101117.31
2023-02-19T05:25:50.922Z,101121.13
2023-02-19T05:28:19.300Z,101129.16
2023-02-19T05:30:50.694Z,101126.63
2023-02-19T05:33:19.652Z,101123.50
2023-02-19T05:35:50.406Z,101141.41
2023-02-19T05:38:19.105Z,101148.19
2023-02-19T05:40:47.214Z,101137.25
2023-02-19T05:43:15.501Z,101156.41
2023-02-19T05:45:43.386Z,101156.63
2023-02-19T05:48:12.800Z,101160.44
2023-02-19T05:50:40.631Z,101169.53
2023-02-19T05:53:14.257Z,101172.91
2023-02-19T05:55:42.028Z,101169.53
2023-02-19T05:58:09.772Z,101166.53
2023-02-19T06:00:37.553Z,101175.31
2023-02-19T06:03:05.751Z,101185.25
2023-02-19T06:05:34.975Z,101181.38
2023-02-19T06:08:02.754Z,101176.78
2023-02-19T06:10:30.462Z,101161.16
2023-02-19T06:12:58.161Z,101172.09
2023-02-19T06:15:25.816Z,101191.72
2023-02-19T06:17:53.801Z,101195.94
2023-02-19T06:20:21.435Z,101192.56
2023-02-19T06:22:52.868Z,101194.25
2023-02-19T06:25:21.330Z,101185.19
2023-02-19T06:27:49.077Z,101196.97
2023-02-19T06:30:16.912Z,101204.28
2023-02-19T06:32:44.587Z,101216.72
2023-02-19T06:35:12.466Z,101204.59
2023-02-19T06:37:40.325Z,101206.13
2023-02-19T06:40:10.393Z,101205.06
2023-02-19T06:42:38.166Z,101211.38
2023-02-19T06:45:06.432Z,101215.50
2023-02-19T06:47:34.806Z,101219.94
2023-02-19T06:50:05.275Z,101196.22
2023-02-19T06:52:33.040Z,101218.97
2023-02-19T06:55:00.826Z,101228.44
2023-02-19T06:57:32.242Z,101228.69
2023-02-19T06:59:59.993Z,101234.56
2023-02-19T07:02:27.780Z,101233.50
2023-02-19T07:04:55.536Z,101240.47
2023-02-19T07:07:23.398Z,101236.25
2023-02-19T07:09:51.159Z,101239.44
2023-02-19T07:12:18.879Z,101256.00
2023-02-19T07:14:48.081Z,101254.72
2023-02-19T07:17:15.785Z,101269.94
2023-02-19T07:19:43.722Z,101271.84
2023-02-19T07:22:11.595Z,101272.06
2023-02-19T07:24:42.570Z,101273.28
2023-02-19T07:27:10.511Z,101273.53
2023-02-19T07:29:38.302Z,101284.19
2023-02-19T07:32:07.604Z,101275.31
2023-02-19T07:34:35.366Z,101280.50
2023-02-19T07:37:06.082Z,101288.41
2023-02-19T07:39:35.428Z,101302.31
2023-02-19T07:42:03.309Z,101297.75
2023-02-19T07:44:33.300Z,101305.47
2023-02-19T07:47:01.129Z,101304.84
2023-02-19T07:49:30.284Z,101318.13
2023-02-19T07:51:59.309Z,101325.53
2023-02-19T07:54:27.066Z,101322.81
2023-02-19T07:56:56.487Z,101312.66
2023-02-19T07:59:24.257Z,101328.38
2023-02-19T08:02:09.802Z,101346.66
2023-02-19T08:04:38.992Z,101333.88
2023-02-19T08:07:06.728Z,101333.38
2023-02-19T08:09:34.994Z,101339.78
2023-02-19T08:12:20.250Z,101341.38
2023-02-19T08:14:47.989Z,101343.06
2023-02-19T08:17:15.988Z,101357.19
2023-02-19T08:19:45.397Z,101350.66
2023-02-19T08:22:16.170Z,101349.50
2023-02-19T08:24:45.190Z,101346.44
2023-02-19T08:27:12.951Z,101336.63
2023-02-19T08:29:41.109Z,101347.28
2023-02-19T08:32:08.984Z,101366.16
2023-02-19T08:34:37.096Z,101371.00
2023-02-19T08:37:06.158Z,101366.47
2023-02-19T08:39:33.891Z,101368.78
2023-02-19T08:42:01.716Z,101379.97
2023-02-19T08:44:29.718Z,101360.13
2023-02-19T08:46:57.525Z,101358.88
2023-02-19T08:49:27.289Z,101365.41
2023-02-19T08:51:55.339Z,101369.22
2023-02-19T08:54:24.365Z,101383.97
2023-02-19T08:56:52.210Z,101370.06
2023-02-19T08:59:20.690Z,101398.31
2023-02-19T09:01:48.515Z,101388.41
2023-02-19T09:04:16.334Z,101396.22
2023-02-19T09:06:44.101Z,101395.28
2023-02-19T09:09:11.815Z,101398.09
2023-02-19T09:11:41.328Z,101388.59
2023-02-19T09:14:09.489Z,101386.50
2023-02-19T09:16:38.395Z,101404.44
2023-02-19T09:23:17.946Z,101407.59
2023-02-19T09:25:45.719Z,101412.03
2023-02-19T09:28:15.542Z,101413.94
2023-02-19T09:30:43.474Z,101419.00
2023-02-19T09:33:11.333Z,101418.16
2023-02-19T09:35:40.478Z,101423.00
2023-02-19T09:38:10.763Z,101423.66
2023-02-19T09:40:39.789Z,101432.41
2023-02-19T09:43:09.074Z,101417.22
2023-02-19T09:45:39.032Z,101431.47
2023-02-19T09:48:07.870Z,101444.22
2023-02-19T09:50:39.714Z,101409.53
2023-02-19T09:53:16.469Z,101444.75
2023-02-19T09:55:45.629Z,101445.91
2023-02-19T09:58:27.248Z,101448.03
2023-02-19T10:00:58.430Z,101428.00
2023-02-19T10:03:33.845Z,101440.25
2023-02-19T10:06:05.774Z,101451.53
2023-02-19T10:08:35.862Z,101450.88
2023-02-19T10:11:05.672Z,101455.44
2023-02-19T10:13:37.340Z,101452.97
2023-02-19T10:16:11.393Z,101471.69
2023-02-19T10:18:42.317Z,101480.03
2023-02-19T10:21:15.352Z,101490.59
2023-02-19T10:23:44.980Z,101491.19
2023-02-19T10:26:12.731Z,101517.63
2023-02-19T10:28:40.481Z,101523.28
2023-02-19T10:31:20.395Z,101512.31
2023-02-19T10:33:52.420Z,101510.22
2023-02-19T10:36:31.888Z,101507.47
2023-02-19T10:39:02.591Z,101517.41
2023-02-19T10:41:31.737Z,101513.94
2023-02-19T10:44:06.682Z,101529.66
2023-02-19T10:46:38.058Z,101532.81
2023-02-19T10:49:18.230Z,101537.25
2023-02-19T10:51:47.777Z,101542.72
2023-02-19T10:54:20.241Z,101545.47
2023-02-19T10:56:48.531Z,101544.41
2023-02-19T10:59:24.297Z,101558.16
2023-02-19T11:01:58.402Z,101552.25
2023-02-19T11:04:27.506Z,101557.53
2023-02-19T11:06:55.780Z,101558.81
2023-02-19T11:09:32.824Z,101545.72
2023-02-19T11:12:00.656Z,101545.16
2023-02-19T11:14:30.241Z,101553.94
2023-02-19T11:17:01.190Z,101552.47
2023-02-19T11:19:37.642Z,101557.00
2023-02-19T11:22:20.912Z,101556.91
2023-02-19T11:24:57.301Z,101555.41
2023-02-19T11:27:26.413Z,101557.09
2023-02-19T11:29:54.346Z,101567.53
2023-02-19T11:32:29.351Z,101561.88
2023-02-19T11:35:18.100Z,101547.19
2023-02-19T11:37:56.969Z,101557.72
2023-02-19T11:40:36.483Z,101565.66
2023-02-19T11:43:12.363Z,101551.59
2023-02-19T11:45:49.649Z,101541.94
2023-02-19T11:48:30.797Z,101537.59
2023-02-19T11:51:11.671Z,101520.66
2023-02-19T11:53:49.837Z,101543.97
2023-02-19T11:56:20.570Z,101554.78
2023-02-19T11:58:57.642Z,101561.53
2023-02-19T12:01:44.529Z,101550.97
2023-02-19T12:04:41.964Z,101553.56
2023-02-19T12:07:24.443Z,101517.56
2023-02-19T12:10:05.201Z,101535.97
2023-02-19T12:12:45.512Z,101536.06
2023-02-19T12:15:39.896Z,101504.53
2023-02-19T12:18:40.155Z,101535.56
2023-02-19T12:21:25.759Z,101539.41
2023-02-19T12:24:17.315Z,101537.22
2023-02-19T12:26:51.721Z,101533.25
2023-02-19T12:29:35.381Z,101541.25
2023-02-19T12:32:24.427Z,101522.06
2023-02-19T12:35:27.846Z,101547.09
2023-02-19T12:38:06.904Z,101560.22
2023-02-19T12:40:51.819Z,101560.38
2023-02-19T12:43:22.183Z,101552.50
2023-02-19T12:45:56.419Z,101558.44
2023-02-19T12:48:32.948Z,101562.44
2023-02-19T12:51:06.576Z,101547.84
2023-02-19T12:53:41.910Z,101542.78
2023-02-19T12:56:16.033Z,101558.84
2023-02-19T12:58:47.724Z,101550.50
2023-02-19T13:01:23.391Z,101528.56
2023-02-19T13:04:21.860Z,101541.88
2023-02-19T13:06:57.374Z,101563.63
2023-02-19T13:09:36.050Z,101555.50
2023-02-19T13:12:09.307Z,101563.84
2023-02-19T13:14:41.334Z,101562.69
2023-02-19T13:17:27.059Z,101566.91
2023-02-19T13:19:59.835Z,101569.31
2023-02-19T13:22:57.840Z,101568.59
2023-02-19T13:25:40.930Z,101565.72
2023-02-19T13:28:21.426Z,101572.69
2023-02-19T13:31:25.152Z,101549.03
2023-02-19T13:34:02.586Z,101578.00
2023-02-19T13:36:31.809Z,101561.16
2023-02-19T13:39:01.091Z,101565.94
2023-02-19T13:41:33.372Z,101572.50
2023-02-19T13:44:04.734Z,101566.09
2023-02-19T13:46:39.731Z,101560.72
2023-02-19T13:49:41.440Z,101584.19
2023-02-19T13:52:40.688Z,101598.28
2023-02-19T13:55:46.634Z,101609.59
2023-02-19T13:58:53.169Z,101589.09
2023-02-19T14:01:41.412Z,101589.50
2023-02-19T14:04:18.092Z,101592.06
2023-02-19T14:07:19.565Z,101599.47
2023-02-19T14:09:48.423Z,101605.19
2023-02-19T14:12:22.359Z,101603.78
2023-02-19T14:14:52.720Z,101602.84
2023-02-19T14:17:28.773Z,101629.16
2023-02-19T14:20:04.438Z,101632.25
2023-02-19T14:23:11.849Z,101631.31
2023-02-19T14:25:58.230Z,101632.34
2023-02-19T14:28:36.490Z,101628.53
2023-02-19T14:31:14.980Z,101633.81
2023-02-19T14:33:47.194Z,101645.88
2023-02-19T14:36:24.352Z,101649.66
2023-02-19T14:38:56.002Z,101662.75
2023-02-19T14:41:25.568Z,101669.19
2023-02-19T14:43:57.490Z,101664.50
2023-02-19T14:46:32.138Z,101668.41
2023-02-19T14:49:06.213Z,101658.69
2023-02-19T14:51:38.462Z,101661.44
2023-02-19T14:54:27.567Z,101658.50
2023-02-19T14:56:55.720Z,101666.31
2023-02-19T14:59:26.085Z,101661.88
2023-02-19T15:02:03.106Z,101661.88
2023-02-19T15:04:38.993Z,101662.63
2023-02-19T15:07:09.714Z,101665.69
2023-02-19T15:09:42.771Z,101659.25
2023-02-19T15:12:17.161Z,101661.25
2023-02-19T15:14:46.486Z,101649.19
2023-02-19T15:17:21.944Z,101635.47
2023-02-19T15:19:49.855Z,101641.81
2023-02-19T15:22:23.089Z,101640.13
2023-02-19T15:24:51.012Z,101629.16
2023-02-19T15:27:20.790Z,101634.63
2023-02-19T15:29:53.715Z,101602.28
2023-02-19T15:32:26.258Z,101610.97
2023-02-19T15:34:58.039Z,101595.88
2023-02-19T15:37:27.763Z,101619.84
2023-02-19T15:39:57.384Z,101612.56
2023-02-19T15:42:27.672Z,101614.88
2023-02-19T15:45:00.204Z,101598.38
2023-02-19T15:47:37.391Z,101582.19
2023-02-19T15:50:11.441Z,101591.69
2023-02-19T15:52:46.957Z,101588.88
2023-02-19T15:55:28.911Z,101589.19
2023-02-19T15:58:10.687Z,101597.66
2023-02-19T16:00:42.386Z,101587.69
2023-02-19T16:03:19.233Z,101603.78
2023-02-19T16:05:47.130Z,101600.81
2023-02-19T16:08:20.974Z,101604.00
2023-02-19T16:10:59.880Z,101614.09
2023-02-19T16:13:29.465Z,101607.13
2023-02-19T16:16:03.121Z,101608.09
2023-02-19T16:18:32.400Z,101627.09
2023-02-19T16:21:00.770Z,101621.91
2023-02-19T16:23:28.760Z,101626.44
2023-02-19T16:26:01.975Z,101632.28
2023-02-19T16:28:35.985Z,101633.22
2023-02-19T16:31:06.637Z,101625.50
2023-02-19T16:33:41.266Z,101641.16
2023-02-19T16:36:35.241Z,101643.88
2023-02-19T16:39:21.756Z,101630.16
2023-02-19T16:42:22.562Z,101643.78
2023-02-19T16:44:50.373Z,101639.56
2023-02-19T16:47:27.320Z,101643.47
2023-02-19T16:49:58.147Z,101651.03
2023-02-19T16:52:26.082Z,101666.28
2023-02-19T16:54:53.842Z,101676.47
2023-02-19T16:57:21.775Z,101680.56
2023-02-19T16:59:49.593Z,101694.66
2023-02-19T17:02:22.369Z,101681.47
2023-02-19T17:04:51.787Z,101693.56
2023-02-19T17:07:27.513Z,101692.47
2023-02-19T17:10:02.632Z,101694.66
2023-02-19T17:12:32.932Z,101700.78
2023-02-19T17:15:00.676Z,101722.06
2023-02-19T17:17:29.400Z,101731.38
2023-02-19T17:19:57.249Z,101722.25
2023-02-19T17:22:30.026Z,101731.19
2023-02-19T17:24:57.858Z,101736.47
2023-02-19T17:27:25.544Z,101728.75
2023-02-19T17:29:53.275Z,101750.50
2023-02-19T17:32:21.386Z,101735.19
2023-02-19T17:34:52.325Z,101762.75
2023-02-19T17:37:20.125Z,101756.19
2023-02-19T17:39:50.294Z,101760.03
2023-02-19T17:42:18.783Z,101767.66
2023-02-19T17:44:47.385Z,101765.28
2023-02-19T17:47:15.384Z,101766.50
2023-02-19T17:49:44.213Z,101757.75
2023-02-19T17:52:12.299Z,101771.88
2023-02-19T17:54:40.231Z,101779.16
2023-02-19T17:57:09.396Z,101780.56
2023-02-19T17:59:37.213Z,101783.88
2023-02-19T18:02:05.054Z,101785.94
2023-02-19T18:04:34.820Z,101795.44
2023-02-19T18:07:03.220Z,101786.69
2023-02-19T18:09:30.999Z,101790.28
2023-02-19T18:11:58.702Z,101785.56
2023-02-19T18:14:27.848Z,101800.81
2023-02-19T18:16:55.652Z,101783.69
2023-02-19T18:19:23.799Z,101782.06
2023-02-19T18:21:51.566Z,101788.34
2023-02-19T18:24:19.595Z,101803.34
2023-02-19T18:26:47.274Z,101792.97
2023-02-19T18:29:14.976Z,101791.06
2023-02-19T18:31:44.157Z,101800.59
2023-02-19T18:34:18.611Z,101798.81
2023-02-19T18:36:46.642Z,101811.59
2023-02-19T18:39:14.406Z,101811.22
2023-02-19T18:41:42.198Z,101811.31
2023-02-19T18:44:09.902Z,101808.75
2023-02-19T18:46:37.750Z,101794.28
2023-02-19T18:49:07.918Z,101812.25
2023-02-19T18:51:35.609Z,101806.03
2023-02-19T18:54:04.147Z,101816.22
2023-02-19T18:56:32.034Z,101818.28
2023-02-19T18:59:00.375Z,101812.34
2023-02-19T19:01:28.480Z,101808.59
2023-02-19T19:03:56.244Z,101822.72
2023-02-19T19:06:25.460Z,101819.50
2023-02-19T19:08:57.978Z,101821.41
2023-02-19T19:11:28.653Z,101828.16
2023-02-19T19:13:56.527Z,101833.34
2023-02-19T19:16:25.344Z,101830.25
2023-02-19T19:18:53.487Z,101828.53
2023-02-19T19:21:22.471Z,101834.38
2023-02-19T19:23:52.015Z,101820.69
2023-02-19T19:26:20.017Z,101838.38
2023-02-19T19:28:47.718Z,101853.66
2023-02-19T19:31:17.087Z,101841.53
2023-02-19T19:33:46.495Z,101848.16
2023-02-19T19:36:14.869Z,101844.06
2023-02-19T19:38:42.811Z,101850.31
2023-02-19T19:41:19.196Z,101858.44
2023-02-19T19:43:48.692Z,101869.72
2023-02-19T19:46:19.954Z,101871.41
2023-02-19T19:48:48.563Z,101816.75
2023-02-19T19:51:17.467Z,101848.91
2023-02-19T19:53:48.594Z,101845.34
2023-02-19T19:56:18.197Z,101850.31
2023-02-19T19:58:46.202Z,101834.34
2023-02-19T20:01:20.968Z,101834.84
2023-02-19T20:03:49.358Z,101847.16
2023-02-19T20:06:25.060Z,101848.00
2023-02-19T20:08:52.800Z,101843.72
2023-02-19T20:11:22.023Z,101857.66
2023-02-19T20:13:49.906Z,101857.28
2023-02-19T20:16:17.681Z,101858.34
2023-02-19T20:18:45.533Z,101874.56
2023-02-19T20:21:13.594Z,101872.78
2023-02-19T20:23:41.549Z,101874.91
2023-02-19T20:26:09.260Z,101863.81
2023-02-19T20:28:38.645Z,101879.47
2023-02-19T20:31:06.379Z,101862.47
2023-02-19T20:33:34.124Z,101873.69
2023-02-19T20:36:02.125Z,101877.41
2023-02-19T20:38:29.893Z,101869.97
2023-02-19T20:40:58.327Z,101872.69
2023-02-19T20:43:28.369Z,101862.41
2023-02-19T20:45:57.638Z,101886.25
2023-02-19T20:48:25.427Z,101873.06
2023-02-19T20:50:59.184Z,101877.56
2023-02-19T20:53:27.038Z,101877.25
2023-02-19T20:55:55.308Z,101885.94
2023-02-19T20:58:23.275Z,101868.03
2023-02-19T21:00:53.397Z,101883.72
2023-02-19T21:03:26.193Z,101885.53
2023-02-19T21:05:53.919Z,101880.91
2023-02-19T21:08:21.584Z,101901.56
2023-02-19T21:10:49.360Z,101903.50
2023-02-19T21:13:18.748Z,101909.09
2023-02-19T21:15:46.861Z,101907.06
2023-02-19T21:18:16.081Z,101899.63
2023-02-19T21:20:45.228Z,101900.34
2023-02-19T21:23:13.892Z,101899.53
2023-02-19T21:25:41.616Z,101890.19
2023-02-19T21:28:10.779Z,101899.88
2023-02-19T21:30:38.512Z,101907.50
2023-02-19T21:33:06.354Z,101894.75
2023-02-19T21:35:34.409Z,101902.25
2023-02-19T21:38:03.737Z,101900.53
2023-02-19T21:40:32.922Z,101892.69
2023-02-19T21:43:00.854Z,101881.56
2023-02-19T21:45:28.777Z,101907.66
2023-02-19T21:47:56.680Z,101911.38
2023-02-19T21:50:24.457Z,101887.91
2023-02-19T21:52:52.193Z,101903.56
2023-02-19T21:55:21.522Z,101909.53
2023-02-19T21:57:49.267Z,101916.66
2023-02-19T22:00:17.474Z,101920.63
2023-02-19T22:02:45.259Z,101911.63
2023-02-19T22:05:13.138Z,101895.34
2023-02-19T22:07:40.922Z,101871.56
2023-02-19T22:10:10.326Z,101864.59
2023-02-19T22:12:41.898Z,101883.97
2023-02-19T22:15:12.536Z,101886.59
2023-02-19T22:17:40.612Z,101887.59
2023-02-19T22:20:09.119Z,101895.91
2023-02-19T22:22:36.953Z,101884.53
2023-02-19T22:25:05.010Z,101909.34
2023-02-19T22:27:32.779Z,101895.22
2023-02-19T22:30:03.309Z,101898.84
2023-02-19T22:32:31.265Z,101905.75
2023-02-19T22:34:59.245Z,101908.69
2023-02-19T22:37:27.156Z,101893.56
2023-02-19T22:39:55.222Z,101903.44
2023-02-19T22:42:24.179Z,101909.25
2023-02-19T22:44:52.234Z,101877.78
2023-02-19T22:47:21.500Z,101893.19
2023-02-19T22:49:49.261Z,101900.03
2023-02-19T22:52:17.190Z,101895.72
2023-02-19T22:54:44.996Z,101896.50
2023-02-19T22:57:15.809Z,101890.47
2023-02-19T22:59:46.888Z,101896.13
2023-02-19T23:02:14.856Z,101891.81
2023-02-19T23:04:44.332Z,101897.75
2023-02-19T23:07:12.127Z,101896.97
2023-02-19T23:09:45.893Z,101896.81
2023-02-19T23:12:13.702Z,101896.69
2023-02-19T23:14:41.583Z,101902.09
2023-02-19T23:17:09.296Z,101895.13
2023-02-19T23:19:37.940Z,101873.31
2023-02-19T23:22:07.455Z,101894.69
2023-02-19T23:24:35.324Z,101888.00
2023-02-19T23:27:03.510Z,101888.84
2023-02-19T23:29:31.612Z,101887.38
2023-02-19T23:32:00.287Z,101882.34
2023-02-19T23:34:28.238Z,101870.53
2023-02-19T23:36:56.394Z,101865.69
2023-02-19T23:39:25.522Z,101885.59
2023-02-19T23:41:54.953Z,101873.38
2023-02-19T23:44:24.272Z,101864.72
2023-02-19T23:46:53.005Z,101879.03
2023-02-19T23:49:21.278Z,101876.56
2023-02-19T23:51:49.059Z,101862.78
2023-02-19T23:54:16.929Z,101862.66
2023-02-19T23:56:46.066Z,101861.09
2023-02-19T23:59:13.897Z,101850.06
